Depesza METAR lotniska Warszawa-Okęcie


METAR = EPWA 011000Z 21007KT 180V250 CAVOK 33/13 Q1007 NOSIG

STACJA......... EPWA - Warszawa-Okęcie (WAW)
POMIAR......... Tue Sep 1, 12:00 CEST
TERAZ.......... Tue Sep 1, 12:03 CEST
CZAS........... 3 min temu
WIATR.......... południowo południowo-zachodni  (SSW) z prędkością 13 km/h
WIDZIALNOŚĆ.... powyżej 10 kilometrów
CHMURY......... bezchmurne niebo
TEMPERATURA.... 33°C
T.PUNKTU ROSY.. 13°C
WILGOTNOŚĆ..... 30%
CIŚNIENIE...... 1007 hPa
PROGNOZA....... bez nagłych zmian w ciągu 2h

Depesza METAR lotniska Kraków-Balice


METAR = EPKK 011000Z 25011KT 190V270 CAVOK 32/13 Q1009

STACJA......... EPKK - Kraków-Balice (KRK)
POMIAR......... Tue Sep 1, 12:00 CEST
TERAZ.......... Tue Sep 1, 12:03 CEST
CZAS........... 3 min temu
WIATR.......... zachodni południowo-zachodni (WSW) z prędkością 20 km/h
WIDZIALNOŚĆ.... powyżej 10 kilometrów
CHMURY......... bezchmurne niebo
TEMPERATURA.... 32°C
T.PUNKTU ROSY.. 13°C
WILGOTNOŚĆ..... 31%
CIŚNIENIE...... 1009 hPa

Depesza METAR lotniska Łódź-Lublinek


METAR = EPLL 011000Z 24005G15KT 190V290 CAVOK 31/11 Q1007

STACJA......... EPLL - Łódź-Lublinek (LCJ)
POMIAR......... Tue Sep 1, 12:00 CEST
TERAZ.......... Tue Sep 1, 12:03 CEST
CZAS........... 3 min temu
WIATR.......... zachodni południowo-zachodni (WSW) z prędkością 9 km/h, w porywach do 28 km/h
WIDZIALNOŚĆ.... powyżej 10 kilometrów
CHMURY......... bezchmurne niebo
TEMPERATURA.... 31°C
T.PUNKTU ROSY.. 11°C
WILGOTNOŚĆ..... 29%
CIŚNIENIE...... 1007 hPa

Depesza METAR lotniska Wrocław-Strachowice


METAR = EPWR 010930Z 32005KT 260V360 CAVOK 32/15 Q1008

STACJA......... EPWR - Wrocław-Strachowice (WRO)
POMIAR......... Tue Sep 1, 11:30 CEST
TERAZ.......... Tue Sep 1, 12:03 CEST
CZAS........... 33 min temu
WIATR.......... północno zachodni (NW) z prędkością 9 km/h
WIDZIALNOŚĆ.... powyżej 10 kilometrów
CHMURY......... bezchmurne niebo
TEMPERATURA.... 32°C
T.PUNKTU ROSY.. 15°C
WILGOTNOŚĆ..... 36%
CIŚNIENIE...... 1008 hPa

Depesza METAR lotniska Katowice-Pyrzowice


METAR = EPKT 011000Z 23013KT CAVOK 31/13 Q1009

STACJA......... EPKT - Katowice-Pyrzowice (KTW)
POMIAR......... Tue Sep 1, 12:00 CEST
TERAZ.......... Tue Sep 1, 12:03 CEST
CZAS........... 3 min temu
WIATR.......... południowo-zachodni (SW) z prędkością 24 km/h
WIDZIALNOŚĆ.... powyżej 10 kilometrów
CHMURY......... bezchmurne niebo
TEMPERATURA.... 31°C
T.PUNKTU ROSY.. 13°C
WILGOTNOŚĆ..... 33%
CIŚNIENIE...... 1009 hPa

Depesza METAR lotniska Gdańsk


METAR = EPGD 010930Z VRB01KT CAVOK 28/17 Q1005

STACJA......... EPGD - Gdańsk im. Lecha Wałęsy (GDN)
POMIAR......... Tue Sep 1, 11:30 CEST
TERAZ.......... Tue Sep 1, 12:03 CEST
CZAS........... 33 min temu
WIATR.......... zmienny z prędkością 2 km/h
WIDZIALNOŚĆ.... powyżej 10 kilometrów
CHMURY......... bezchmurne niebo
TEMPERATURA.... 28°C
T.PUNKTU ROSY.. 17°C
WILGOTNOŚĆ..... 51%
INDEX GORĄCA... 28°C
CIŚNIENIE...... 1005 hPa

Depesza METAR lotniska Poznań-Ławica


METAR = EPPO 011000Z 21004KT 160V250 CAVOK 32/16 Q1006

STACJA......... EPPO - Poznań-Ławica (POZ)
POMIAR......... Tue Sep 1, 12:00 CEST
TERAZ.......... Tue Sep 1, 12:03 CEST
CZAS........... 3 min temu
WIATR.......... południowo południowo-zachodni  (SSW) z prędkością 7 km/h
WIDZIALNOŚĆ.... powyżej 10 kilometrów
CHMURY......... bezchmurne niebo
TEMPERATURA.... 32°C
T.PUNKTU ROSY.. 16°C
WILGOTNOŚĆ..... 38%
CIŚNIENIE...... 1006 hPa

Depesza METAR lotniska Rzeszów-Jasionka


METAR = EPRZ 010930Z 22018KT CAVOK 32/12 Q1010

STACJA......... EPRZ - Rzeszów-Jasionka (RZE)
POMIAR......... Tue Sep 1, 11:30 CEST
TERAZ.......... Tue Sep 1, 12:03 CEST
CZAS........... 33 min temu
WIATR.......... południowo-zachodni (SW) z prędkością 33 km/h
WIDZIALNOŚĆ.... powyżej 10 kilometrów
CHMURY......... bezchmurne niebo
TEMPERATURA.... 32°C
T.PUNKTU ROSY.. 12°C
WILGOTNOŚĆ..... 29%
CIŚNIENIE...... 1010 hPa

Depesza METAR lotniska Szczecin-Goleniów


METAR = EPSC 010930Z 28005KT 230V350 CAVOK 27/18 Q1006

STACJA......... EPSC - Szczecin-Goleniów (SZZ)
POMIAR......... Tue Sep 1, 11:30 CEST
TERAZ.......... Tue Sep 1, 12:03 CEST
CZAS........... 33 min temu
WIATR.......... zachodni (W) z prędkością 9 km/h
WIDZIALNOŚĆ.... powyżej 10 kilometrów
CHMURY......... bezchmurne niebo
TEMPERATURA.... 27°C
T.PUNKTU ROSY.. 18°C
WILGOTNOŚĆ..... 58%
INDEX GORĄCA... 28°C
CIŚNIENIE...... 1006 hPa

Depesza METAR lotniska Lublin-Świdnik


METAR = EPLB 010930Z 24003KT 210V280 CAVOK 32/14 Q1009 =

STACJA......... EPLB - Lublin-Świdnik (LUZ)
POMIAR......... Tue Sep 1, 11:30 CEST
TERAZ.......... Tue Sep 1, 12:03 CEST
CZAS........... 33 min temu
WIATR.......... zachodni południowo-zachodni (WSW) z prędkością 6 km/h
WIDZIALNOŚĆ.... powyżej 10 kilometrów
CHMURY......... bezchmurne niebo
TEMPERATURA.... 32°C
T.PUNKTU ROSY.. 14°C
WILGOTNOŚĆ..... 33%
CIŚNIENIE...... 1009 hPa

Depesza METAR lotniska Bydgoszcz-Szwederowo


METAR = EPBY 010930Z 23006KT 190V270 CAVOK 30/15 Q1006 =

STACJA......... EPBY - Bydgoszcz-Szwederowo (BZG)
POMIAR......... Tue Sep 1, 11:30 CEST
TERAZ.......... Tue Sep 1, 12:03 CEST
CZAS........... 33 min temu
WIATR.......... południowo-zachodni (SW) z prędkością 11 km/h
WIDZIALNOŚĆ.... powyżej 10 kilometrów
CHMURY......... bezchmurne niebo
TEMPERATURA.... 30°C
T.PUNKTU ROSY.. 15°C
WILGOTNOŚĆ..... 40%
INDEX GORĄCA... 29°C
CIŚNIENIE...... 1006 hPa

Depesza METAR lotniska Zielona Góra-Babimost


METAR = EPZG 010930Z 22011KT CAVOK 31/16 Q1007 =

STACJA......... EPZG - Zielona Góra-Babimost (IEG)
POMIAR......... Tue Sep 1, 11:30 CEST
TERAZ.......... Tue Sep 1, 12:03 CEST
CZAS........... 33 min temu
WIATR.......... południowo-zachodni (SW) z prędkością 20 km/h
WIDZIALNOŚĆ.... powyżej 10 kilometrów
CHMURY......... bezchmurne niebo
TEMPERATURA.... 31°C
T.PUNKTU ROSY.. 16°C
WILGOTNOŚĆ..... 40%
INDEX GORĄCA... 31°C
CIŚNIENIE...... 1007 hPa

Sprawdź też: prognoza pogody dla miast w Polsce!